Time;durP1;ratioP1;P1;durP2;ratioP2;P2;SDS_P1;SDS_P2;PMS_P1;PMS_P2;Temp;Humidity;BMP_temperature;BMP_pressure;BME280_temperature;BME280_humidity;BME280_pressure;Samples;Min_cycle;Max_cycle;Signal;HPM_P1;HPM_P2
2022/03/26 00:01:58;;;;;;;63.67;31.02;;;;;;;9.31;70.47;102673.84;5022277;28;20739;-73
2022/03/26 00:04:25;;;;;;;66.22;32.17;;;;;;;9.29;69.85;102668.69;5023796;28;20053;-75
2022/03/26 00:06:52;;;;;;;63.92;31.20;;;;;;;9.27;70.10;102667.38;5022190;28;20156;-73
2022/03/26 00:09:18;;;;;;;70.53;33.13;;;;;;;9.24;70.43;102670.84;5030983;28;20049;-75
2022/03/26 00:11:44;;;;;;;63.70;31.13;;;;;;;9.20;70.14;102661.63;5025484;28;20045;-72
2022/03/26 00:14:11;;;;;;;69.50;32.70;;;;;;;9.18;69.03;102672.22;5025689;28;20269;-75
2022/03/26 00:16:38;;;;;;;67.15;33.00;;;;;;;9.19;70.93;102674.66;5026012;28;20053;-74
2022/03/26 00:19:05;;;;;;;65.70;32.75;;;;;;;9.15;71.06;102670.13;5023163;28;20057;-74
2022/03/26 00:21:32;;;;;;;65.78;33.53;;;;;;;9.15;69.80;102670.91;5023689;28;20132;-73
2022/03/26 00:23:59;;;;;;;64.78;33.28;;;;;;;9.09;70.58;102668.72;5027284;28;20065;-75
2022/03/26 00:26:25;;;;;;;69.40;33.42;;;;;;;9.09;70.51;102669.53;5026287;28;20156;-73
2022/03/26 00:28:52;;;;;;;73.05;34.83;;;;;;;9.06;71.31;102672.16;5021076;28;20513;-74
2022/03/26 00:31:18;;;;;;;66.47;33.25;;;;;;;9.05;70.43;102673.31;5024028;28;20049;-76
2022/03/26 00:33:45;;;;;;;73.22;33.58;;;;;;;9.00;69.79;102677.09;5019313;28;20437;-73
2022/03/26 00:36:12;;;;;;;69.40;34.03;;;;;;;8.90;71.37;102663.72;5025430;28;20059;-73
2022/03/26 00:38:39;;;;;;;65.18;32.75;;;;;;;8.89;71.99;102664.06;5024015;28;20048;-73
2022/03/26 00:41:05;;;;;;;70.22;34.92;;;;;;;8.86;71.34;102661.97;5024871;28;20053;-72
2022/03/26 00:43:32;;;;;;;71.28;34.03;;;;;;;8.86;72.08;102661.97;5021753;28;20049;-74
2022/03/26 00:45:58;;;;;;;70.82;33.83;;;;;;;8.82;72.33;102653.56;5015054;28;20145;-75
2022/03/26 00:48:25;;;;;;;65.40;33.70;;;;;;;8.80;71.15;102655.84;5019724;28;20049;-73
2022/03/26 00:50:51;;;;;;;63.20;33.05;;;;;;;8.80;72.59;102660.56;5024897;28;20135;-74
2022/03/26 00:53:18;;;;;;;64.20;31.65;;;;;;;8.76;73.02;102659.63;5026176;28;20132;-73
2022/03/26 00:55:45;;;;;;;59.20;30.25;;;;;;;8.74;71.92;102662.72;5024290;28;20042;-74
2022/03/26 00:58:11;;;;;;;61.65;31.00;;;;;;;8.73;72.29;102655.59;5026609;28;20061;-74
2022/03/26 01:00:38;;;;;;;60.22;28.92;;;;;;;8.72;72.01;102665.03;5026251;28;20051;-72
2022/03/26 01:03:08;;;;;;;52.22;26.13;;;;;;;8.70;72.46;102664.53;5027027;28;20715;-73
2022/03/26 01:05:36;;;;;;;58.33;26.05;;;;;;;8.66;73.12;102666.38;5024517;28;20061;-77
2022/03/26 01:08:03;;;;;;;57.70;25.45;;;;;;;8.63;72.60;102669.78;5024320;28;20116;-73
2022/03/26 01:10:30;;;;;;;54.38;26.60;;;;;;;8.61;73.69;102674.84;5022422;28;20050;-74
2022/03/26 01:12:57;;;;;;;56.17;25.40;;;;;;;8.54;73.02;102680.09;5026029;28;20061;-73
2022/03/26 01:15:23;;;;;;;53.70;27.33;;;;;;;8.51;73.60;102678.03;5024031;28;20046;-74
2022/03/26 01:17:50;;;;;;;62.40;27.70;;;;;;;8.49;73.91;102676.72;5024799;28;20160;-74
2022/03/26 01:20:17;;;;;;;58.47;28.13;;;;;;;8.43;75.00;102678.88;5019644;28;20108;-73
2022/03/26 01:22:45;;;;;;;57.75;27.23;;;;;;;8.41;74.45;102683.94;5017380;28;20408;-72
2022/03/26 01:25:11;;;;;;;59.92;26.45;;;;;;;8.36;74.94;102675.84;5019246;28;20730;-73
2022/03/26 01:27:38;;;;;;;58.03;26.65;;;;;;;8.34;74.22;102680.91;5026253;28;20136;-73
2022/03/26 01:30:06;;;;;;;56.63;26.27;;;;;;;8.31;75.30;102678.81;5019928;28;20053;-73
2022/03/26 01:32:33;;;;;;;58.45;26.25;;;;;;;8.29;76.10;102683.03;5024911;28;20076;-72
2022/03/26 01:34:59;;;;;;;56.28;25.30;;;;;;;8.28;75.29;102675.91;5023709;28;20061;-72
2022/03/26 01:37:26;;;;;;;57.40;25.08;;;;;;;8.28;73.92;102681.41;5026313;28;20050;-72
2022/03/26 01:39:53;;;;;;;52.45;25.33;;;;;;;8.21;76.19;102676.41;5024542;28;20129;-73
2022/03/26 01:42:20;;;;;;;59.67;26.60;;;;;;;8.21;75.61;102675.59;5024265;28;20230;-73
2022/03/26 01:44:47;;;;;;;57.33;25.50;;;;;;;8.19;75.29;102678.69;5024900;28;20050;-72
2022/03/26 01:47:14;;;;;;;58.28;26.13;;;;;;;8.14;75.26;102672.56;5025382;28;20124;-72
2022/03/26 01:49:41;;;;;;;49.92;25.08;;;;;;;8.09;75.78;102667.25;5023936;28;20133;-74
2022/03/26 01:52:09;;;;;;;56.05;26.85;;;;;;;8.05;76.48;102669.84;5024831;28;20057;-74
2022/03/26 01:54:38;;;;;;;63.90;27.75;;;;;;;8.01;76.68;102671.66;5026158;28;20049;-74
2022/03/26 01:57:05;;;;;;;57.05;26.35;;;;;;;8.00;77.58;102679.13;5024913;28;20057;-74
2022/03/26 01:59:32;;;;;;;52.10;25.38;;;;;;;8.00;78.24;102672.78;5021280;28;20057;-73
2022/03/26 02:01:58;;;;;;;61.13;27.83;;;;;;;7.94;78.13;102663.91;5023558;28;20057;-74
2022/03/26 02:04:26;;;;;;;60.05;25.77;;;;;;;7.92;76.50;102673.66;5022845;28;20088;-74
2022/03/26 02:06:53;;;;;;;53.85;24.50;;;;;;;7.93;77.10;102667.00;5026296;28;20049;-73
2022/03/26 02:09:20;;;;;;;57.13;25.55;;;;;;;7.91;78.33;102672.03;5028241;28;20192;-74
2022/03/26 02:11:47;;;;;;;53.13;24.73;;;;;;;7.90;77.31;102667.69;5021013;28;20155;-73
2022/03/26 02:14:14;;;;;;;51.85;24.55;;;;;;;7.86;77.92;102666.72;5024250;28;20143;-74
2022/03/26 02:16:43;;;;;;;58.63;25.73;;;;;;;7.82;78.61;102661.06;5018750;28;20057;-74
2022/03/26 02:19:10;;;;;;;54.85;24.88;;;;;;;7.82;77.27;102663.00;5027070;28;20128;-73
2022/03/26 02:21:37;;;;;;;58.58;26.27;;;;;;;7.80;78.92;102662.53;5020044;28;20049;-73
2022/03/26 02:24:06;;;;;;;55.42;25.00;;;;;;;7.79;78.14;102663.66;5024907;28;20129;-74
2022/03/26 02:26:32;;;;;;;58.80;25.67;;;;;;;7.75;78.80;102658.03;5025143;28;20063;-73
2022/03/26 02:29:07;;;;;;;59.78;24.77;;;;;;;7.72;78.40;102661.44;5027166;28;20056;-73
2022/03/26 02:31:34;;;;;;;52.42;24.70;;;;;;;7.72;78.70;102666.13;5028311;28;20488;-73
2022/03/26 02:34:01;;;;;;;59.15;25.15;;;;;;;7.69;79.20;102664.84;5030000;28;20585;-75
2022/03/26 02:36:28;;;;;;;56.75;25.23;;;;;;;7.70;78.71;102662.91;5029426;28;20055;-73
2022/03/26 02:38:54;;;;;;;53.22;24.65;;;;;;;7.69;78.98;102669.53;5030384;28;20049;-73
2022/03/26 02:41:21;;;;;;;53.97;25.90;;;;;;;7.65;79.72;102668.59;5028660;28;20049;-73
2022/03/26 02:43:48;;;;;;;56.78;25.20;;;;;;;7.57;78.65;102664.72;5030091;28;20053;-73
2022/03/26 02:46:14;;;;;;;52.20;24.95;;;;;;;7.51;79.20;102668.00;5028511;28;20049;-73
2022/03/26 02:48:43;;;;;;;52.42;24.63;;;;;;;7.51;79.18;102668.81;5029599;28;20765;-75
2022/03/26 02:51:10;;;;;;;57.90;26.85;;;;;;;7.45;79.56;102664.63;5018733;28;20054;-72
2022/03/26 02:53:37;;;;;;;55.13;25.75;;;;;;;7.40;79.72;102655.75;5024275;28;20546;-73
2022/03/26 02:56:03;;;;;;;55.67;24.90;;;;;;;7.37;81.88;102667.41;5028347;28;20053;-73
2022/03/26 02:58:30;;;;;;;53.88;25.48;;;;;;;7.36;82.08;102665.81;5029324;28;20055;-73
2022/03/26 03:00:57;;;;;;;51.65;24.02;;;;;;;7.33;81.96;102666.44;5030535;28;20057;-74
2022/03/26 03:03:24;;;;;;;54.53;25.45;;;;;;;7.29;81.16;102654.47;5029798;28;20057;-73
2022/03/26 03:05:51;;;;;;;66.43;28.15;;;;;;;7.29;81.30;102660.00;5028465;28;20052;-73
2022/03/26 03:08:17;;;;;;;53.38;24.67;;;;;;;7.28;80.76;102663.84;5028630;28;20057;-75
2022/03/26 03:10:44;;;;;;;58.97;26.50;;;;;;;7.28;81.66;102655.59;5029265;28;20067;-74
2022/03/26 03:13:12;;;;;;;55.33;25.65;;;;;;;7.29;82.15;102665.50;5027992;28;20059;-73
2022/03/26 03:15:38;;;;;;;57.33;26.42;;;;;;;7.24;81.20;102657.41;5025122;28;20207;-75
2022/03/26 03:18:05;;;;;;;58.00;25.73;;;;;;;7.24;82.49;102668.41;5028006;28;20152;-71
2022/03/26 03:20:31;;;;;;;60.10;26.10;;;;;;;7.20;82.49;102659.19;5028898;28;20128;-72
2022/03/26 03:22:59;;;;;;;52.53;25.70;;;;;;;7.18;82.17;102658.69;5024049;28;20889;-73
2022/03/26 03:25:26;;;;;;;59.20;25.08;;;;;;;7.15;83.58;102654.66;5026385;28;20056;-74
2022/03/26 03:27:53;;;;;;;58.00;25.55;;;;;;;7.14;82.94;102658.56;5029133;28;20053;-75
2022/03/26 03:30:19;;;;;;;61.50;26.02;;;;;;;7.10;82.32;102657.59;5029188;28;20049;-73
2022/03/26 03:32:46;;;;;;;67.80;25.95;;;;;;;7.10;81.46;102662.28;5027555;28;20055;-73
2022/03/26 03:35:12;;;;;;;55.53;26.60;;;;;;;7.02;82.22;102658.41;5027368;28;20100;-73
2022/03/26 03:37:40;;;;;;;54.28;23.85;;;;;;;7.02;83.12;102663.13;5024395;28;20652;-73
2022/03/26 03:40:08;;;;;;;56.13;25.92;;;;;;;6.97;83.55;102669.59;5022203;28;20137;-74
2022/03/26 03:42:35;;;;;;;55.95;24.17;;;;;;;6.92;83.35;102660.72;5026560;28;20090;-73
2022/03/26 03:45:03;;;;;;;50.92;24.45;;;;;;;6.89;84.48;102662.16;5028928;28;20612;-75
2022/03/26 03:47:29;;;;;;;53.85;25.25;;;;;;;6.88;84.41;102665.22;5028302;28;20129;-74
2022/03/26 03:49:56;;;;;;;52.53;24.33;;;;;;;6.84;85.06;102661.50;5028208;28;20076;-73
2022/03/26 03:52:23;;;;;;;52.08;23.83;;;;;;;6.83;83.60;102657.16;5024498;28;20429;-73
2022/03/26 03:54:49;;;;;;;52.95;22.67;;;;;;;6.82;84.12;102661.84;5028000;28;20445;-74
2022/03/26 03:57:16;;;;;;;52.08;24.10;;;;;;;6.77;84.09;102661.19;5022765;28;20167;-73
2022/03/26 03:59:42;;;;;;;54.35;24.55;;;;;;;6.75;85.74;102660.72;5028046;28;20421;-73
2022/03/26 04:02:10;;;;;;;60.05;26.05;;;;;;;6.73;86.43;102662.97;5026598;28;20073;-73
2022/03/26 04:04:41;;;;;;;61.72;25.88;;;;;;;6.70;86.10;102658.94;5026640;28;20536;-73
2022/03/26 04:07:09;;;;;;;46.60;22.50;;;;;;;6.69;86.62;102654.59;5029411;28;20045;-74
2022/03/26 04:09:37;;;;;;;54.45;23.77;;;;;;;6.68;85.61;102663.16;5033676;28;20693;-73
2022/03/26 04:12:04;;;;;;;51.60;24.92;;;;;;;6.67;86.02;102665.09;5025721;28;20046;-73
2022/03/26 04:14:31;;;;;;;55.08;25.25;;;;;;;6.63;86.30;102669.63;5028328;28;20057;-74
2022/03/26 04:16:58;;;;;;;59.65;26.63;;;;;;;6.59;86.91;102670.59;5028127;28;20068;-73
2022/03/26 04:19:24;;;;;;;54.60;26.80;;;;;;;6.59;86.57;102665.91;5028921;28;20049;-73
2022/03/26 04:21:51;;;;;;;56.90;26.67;;;;;;;6.57;87.76;102664.59;5019180;28;20053;-74
2022/03/26 04:24:17;;;;;;;50.22;25.90;;;;;;;6.53;87.37;102674.63;5027268;28;20140;-73
2022/03/26 04:26:49;;;;;;;54.08;25.27;;;;;;;6.54;87.48;102671.56;5028084;28;20103;-73
2022/03/26 04:29:15;;;;;;;57.42;27.15;;;;;;;6.52;87.96;102681.28;5025045;28;20049;-73
2022/03/26 04:31:42;;;;;;;61.17;27.95;;;;;;;6.49;86.86;102673.66;5026763;28;20711;-75
2022/03/26 04:34:08;;;;;;;63.25;25.98;;;;;;;6.45;88.26;102679.00;5026733;28;20115;-74
2022/03/26 04:36:35;;;;;;;53.97;26.67;;;;;;;6.45;89.18;102690.00;5028357;28;20045;-74
2022/03/26 04:39:02;;;;;;;61.70;28.13;;;;;;;6.43;89.36;102680.44;5027824;28;20148;-74
2022/03/26 04:41:29;;;;;;;52.33;26.35;;;;;;;6.37;88.78;102687.22;5025871;28;20610;-75
2022/03/26 04:43:55;;;;;;;52.95;27.10;;;;;;;6.31;89.81;102677.53;5029037;28;20092;-73
2022/03/26 04:46:22;;;;;;;54.85;25.63;;;;;;;6.30;90.49;102681.41;5028360;28;20053;-74
2022/03/26 04:48:48;;;;;;;53.50;25.50;;;;;;;6.29;89.04;102685.28;5026642;28;20045;-73
2022/03/26 04:51:15;;;;;;;59.00;26.92;;;;;;;6.24;89.15;102688.22;5024528;28;20061;-73
2022/03/26 04:53:41;;;;;;;58.20;27.80;;;;;;;6.23;89.14;102694.81;5025232;28;20509;-74
2022/03/26 04:56:08;;;;;;;58.03;28.90;;;;;;;6.19;89.41;102685.59;5026982;28;20506;-73
2022/03/26 04:58:34;;;;;;;66.93;28.20;;;;;;;6.20;89.74;102689.94;5026636;28;20041;-73
2022/03/26 05:01:01;;;;;;;52.80;25.30;;;;;;;6.19;90.90;102691.09;5025926;28;20109;-73
2022/03/26 05:03:30;;;;;;;53.55;26.17;;;;;;;6.14;91.12;102694.00;5026245;28;20087;-75
2022/03/26 05:05:57;;;;;;;54.80;25.23;;;;;;;6.14;91.20;102694.78;5028838;28;20628;-73
2022/03/26 05:08:24;;;;;;;56.22;28.42;;;;;;;6.16;90.87;102710.97;5034856;28;20129;-74
2022/03/26 05:10:50;;;;;;;53.67;25.92;;;;;;;6.09;90.46;102703.19;5027936;28;20128;-75
2022/03/26 05:13:17;;;;;;;56.92;25.13;;;;;;;6.10;91.07;102693.81;5027354;28;20073;-75
2022/03/26 05:15:44;;;;;;;61.13;28.30;;;;;;;6.05;91.34;102704.97;5027510;28;20053;-75
2022/03/26 05:18:10;;;;;;;52.15;27.10;;;;;;;5.97;90.74;102700.25;5022570;28;20057;-74
2022/03/26 05:20:37;;;;;;;54.55;25.73;;;;;;;5.97;92.09;102704.94;5017231;28;20430;-75
2022/03/26 05:23:04;;;;;;;57.20;27.95;;;;;;;5.97;93.19;102704.94;5026871;28;20080;-73
2022/03/26 05:25:30;;;;;;;60.60;29.50;;;;;;;5.97;94.02;102696.69;5027682;28;20109;-77
2022/03/26 05:27:58;;;;;;;53.05;26.48;;;;;;;5.97;94.30;102704.94;5026817;28;20053;-75
2022/03/26 05:30:24;;;;;;;51.47;26.42;;;;;;;5.96;94.03;102703.31;5027980;28;20049;-71
2022/03/26 05:32:51;;;;;;;52.05;25.65;;;;;;;5.93;93.19;102704.75;5025755;28;20061;-76
2022/03/26 05:35:18;;;;;;;62.85;30.13;;;;;;;5.92;93.24;102707.81;5017943;28;20060;-73
2022/03/26 05:37:50;;;;;;;58.83;27.38;;;;;;;5.93;94.00;102714.94;5013499;28;20045;-72
2022/03/26 05:40:18;;;;;;;52.08;26.23;;;;;;;5.95;93.26;102719.00;5022000;28;20132;-74
2022/03/26 05:42:46;;;;;;;56.42;25.80;;;;;;;5.97;92.79;102713.19;5026421;28;20520;-73
2022/03/26 05:45:14;;;;;;;61.08;27.15;;;;;;;5.97;93.71;102715.94;5028010;28;20093;-73
2022/03/26 05:47:41;;;;;;;53.45;27.40;;;;;;;5.97;93.61;102713.97;5026285;28;20579;-74
2022/03/26 05:50:10;;;;;;;57.63;27.35;;;;;;;6.03;93.52;102725.63;5026101;28;20049;-74
2022/03/26 05:52:37;;;;;;;56.88;26.75;;;;;;;6.03;93.52;102737.44;5021087;28;20160;-73
2022/03/26 05:55:05;;;;;;;52.88;26.98;;;;;;;6.05;93.97;102735.19;5025877;28;20157;-74
2022/03/26 05:57:33;;;;;;;62.20;29.15;;;;;;;6.05;93.42;102743.44;5027247;28;20049;-72
2022/03/26 06:00:00;;;;;;;56.85;28.48;;;;;;;6.05;93.89;102742.63;5027250;28;20128;-75
2022/03/26 06:02:27;;;;;;;60.72;30.45;;;;;;;6.05;94.56;102748.94;5025871;28;20467;-72
2022/03/26 06:04:53;;;;;;;58.67;29.10;;;;;;;6.05;94.54;102746.19;5029427;28;20065;-75
2022/03/26 06:07:20;;;;;;;61.97;29.10;;;;;;;6.11;94.21;102752.34;5032537;28;20048;-73
2022/03/26 06:09:46;;;;;;;63.78;27.90;;;;;;;6.09;93.74;102751.84;5035205;28;20132;-72
2022/03/26 06:12:13;;;;;;;60.40;28.77;;;;;;;6.14;94.44;102755.25;5028837;28;20068;-73
2022/03/26 06:14:40;;;;;;;55.15;28.02;;;;;;;6.18;94.00;102756.25;5030444;28;20598;-73
2022/03/26 06:17:06;;;;;;;61.08;27.27;;;;;;;6.22;93.42;102761.94;5030557;28;20057;-75
2022/03/26 06:19:33;;;;;;;58.33;28.15;;;;;;;6.28;93.19;102764.19;5030906;28;20053;-73
2022/03/26 06:21:59;;;;;;;51.58;26.85;;;;;;;6.34;93.61;102764.88;5013545;28;20558;-73
2022/03/26 06:24:26;;;;;;;52.90;27.27;;;;;;;6.39;92.83;102776.53;5022207;28;20103;-73
2022/03/26 06:26:52;;;;;;;60.13;30.52;;;;;;;6.41;92.51;102766.00;5029335;28;20103;-75
2022/03/26 06:29:19;;;;;;;59.75;29.95;;;;;;;6.41;93.50;102757.75;5032089;28;20128;-75
2022/03/26 06:31:46;;;;;;;58.50;30.35;;;;;;;6.55;93.80;102769.44;5031267;28;20132;-74
2022/03/26 06:34:12;;;;;;;58.97;29.80;;;;;;;6.61;92.88;102768.16;5032740;28;20063;-73
2022/03/26 06:36:39;;;;;;;59.05;29.67;;;;;;;6.69;92.97;102775.63;5030847;28;20502;-72
2022/03/26 06:39:06;;;;;;;58.75;29.33;;;;;;;6.75;93.24;102762.53;5029733;28;20061;-75
2022/03/26 06:41:38;;;;;;;61.85;30.40;;;;;;;6.85;92.40;102770.47;5018379;28;20053;-72
2022/03/26 06:44:08;;;;;;;57.95;30.20;;;;;;;6.86;91.99;102755.56;5019126;28;20057;-71
2022/03/26 06:46:39;;;;;;;61.00;28.48;;;;;;;7.00;91.89;102761.72;5027598;28;20048;-73
2022/03/26 06:49:08;;;;;;;60.65;29.30;;;;;;;7.09;91.84;102768.84;5014200;28;20600;-75
2022/03/26 06:51:36;;;;;;;66.05;29.33;;;;;;;7.15;92.15;102752.97;5018452;28;20045;-77
2022/03/26 06:54:03;;;;;;;59.72;27.88;;;;;;;7.21;91.55;102757.16;5025249;28;20053;-76
2022/03/26 06:56:30;;;;;;;68.25;28.73;;;;;;;7.33;91.69;102762.84;5029986;28;20056;-75
2022/03/26 06:58:56;;;;;;;60.33;28.17;;;;;;;7.42;91.35;102758.09;5029216;28;20072;-79
2022/03/26 07:01:23;;;;;;;60.83;27.38;;;;;;;7.54;90.71;102772.03;5027707;28;20088;-75
2022/03/26 07:03:50;;;;;;;63.65;27.98;;;;;;;7.66;90.64;102778.47;5030727;28;20076;-75
2022/03/26 07:06:18;;;;;;;55.97;26.50;;;;;;;7.75;90.51;102773.75;5030222;28;20057;-77
2022/03/26 07:08:46;;;;;;;60.80;27.92;;;;;;;7.86;90.35;102769.50;5030037;28;20080;-76
2022/03/26 07:11:12;;;;;;;54.20;27.17;;;;;;;7.99;89.82;102778.69;5030353;28;20057;-76
2022/03/26 07:13:39;;;;;;;60.53;28.30;;;;;;;8.11;89.11;102778.00;5016747;28;20054;-75
2022/03/26 07:16:05;;;;;;;68.93;27.00;;;;;;;8.21;89.24;102775.69;5027283;28;20071;-77
2022/03/26 07:18:32;;;;;;;57.83;28.77;;;;;;;8.32;88.70;102776.97;5029072;28;20756;-75
2022/03/26 07:21:00;;;;;;;63.95;28.67;;;;;;;8.44;88.00;102773.50;5026604;28;20596;-76
2022/03/26 07:23:27;;;;;;;54.63;26.55;;;;;;;8.53;87.82;102779.75;5027517;28;20057;-77
2022/03/26 07:25:54;;;;;;;55.53;27.42;;;;;;;8.63;87.27;102776.59;5026831;28;20089;-77
2022/03/26 07:28:21;;;;;;;62.33;27.42;;;;;;;8.72;87.40;102775.44;5018810;28;20128;-76
2022/03/26 07:30:48;;;;;;;62.70;27.85;;;;;;;8.86;87.02;102772.38;5020703;28;20557;-76
2022/03/26 07:33:14;;;;;;;54.88;26.05;;;;;;;8.97;85.92;102777.19;5026047;28;20079;-75
2022/03/26 07:35:41;;;;;;;58.42;26.08;;;;;;;9.10;85.85;102780.81;5027895;28;20053;-75
2022/03/26 07:38:07;;;;;;;53.40;27.33;;;;;;;9.18;85.49;102769.69;5023007;28;20049;-77
2022/03/26 07:40:34;;;;;;;54.67;26.23;;;;;;;9.30;85.16;102775.28;5033199;28;20787;-76
2022/03/26 07:43:02;;;;;;;57.30;28.80;;;;;;;9.41;84.30;102770.94;5027238;28;20131;-75
2022/03/26 07:45:29;;;;;;;56.80;28.25;;;;;;;9.57;83.58;102784.91;5027152;28;20076;-76
2022/03/26 07:47:56;;;;;;;61.70;26.63;;;;;;;9.67;83.30;102779.78;5027731;28;20889;-75
2022/03/26 07:50:23;;;;;;;63.35;27.27;;;;;;;9.83;82.33;102777.94;5028557;28;20045;-76
2022/03/26 07:52:49;;;;;;;52.75;24.88;;;;;;;9.98;81.84;102784.78;5023491;28;20054;-72
2022/03/26 07:55:16;;;;;;;55.15;25.50;;;;;;;10.14;82.45;102788.53;5026519;28;20057;-73
2022/03/26 07:57:42;;;;;;;51.78;24.55;;;;;;;10.28;81.15;102783.47;5029107;28;20532;-74
2022/03/26 08:00:09;;;;;;;53.67;25.02;;;;;;;10.41;80.69;102785.91;5026972;28;20850;-70
2022/03/26 08:02:36;;;;;;;53.15;25.08;;;;;;;10.52;79.42;102793.72;5028186;28;20053;-74
2022/03/26 08:05:03;;;;;;;57.15;27.23;;;;;;;10.67;78.79;102804.91;5029109;28;20053;-74
2022/03/26 08:07:30;;;;;;;52.72;24.20;;;;;;;10.80;78.40;102797.38;5026793;28;20052;-73
2022/03/26 08:09:57;;;;;;;51.25;25.83;;;;;;;10.94;77.39;102801.41;5025814;28;20057;-74
2022/03/26 08:12:26;;;;;;;54.05;25.75;;;;;;;11.04;75.76;102794.56;5022331;28;20128;-74
2022/03/26 08:14:53;;;;;;;59.13;27.20;;;;;;;11.19;75.33;102802.13;5027955;28;20053;-75
2022/03/26 08:17:19;;;;;;;52.72;24.30;;;;;;;11.32;74.83;102804.50;5028386;28;20060;-74
2022/03/26 08:19:46;;;;;;;52.63;24.52;;;;;;;11.43;73.70;102796.47;5024028;28;20045;-74
2022/03/26 08:22:13;;;;;;;53.58;25.23;;;;;;;11.57;73.10;102797.69;5025950;28;20164;-75
2022/03/26 08:24:40;;;;;;;49.35;23.52;;;;;;;11.73;72.48;102804.13;5023364;28;20057;-72
2022/03/26 08:27:07;;;;;;;45.30;22.60;;;;;;;11.84;71.53;102801.59;5030962;28;20148;-73
2022/03/26 08:29:34;;;;;;;48.95;23.65;;;;;;;11.98;71.49;102811.13;5028606;28;20079;-74
2022/03/26 08:32:04;;;;;;;50.50;21.92;;;;;;;12.09;70.61;102803.09;5029552;28;20045;-73
2022/03/26 08:34:31;;;;;;;52.38;22.05;;;;;;;12.21;69.26;102805.75;5023345;28;20057;-73
2022/03/26 08:36:58;;;;;;;44.53;21.20;;;;;;;12.34;68.24;102808.09;5031329;28;20534;-75
2022/03/26 08:39:24;;;;;;;45.65;21.92;;;;;;;12.49;68.01;102804.47;5025133;28;20438;-75
2022/03/26 08:41:51;;;;;;;45.53;20.60;;;;;;;12.60;67.01;102808.34;5031222;28;20053;-73
2022/03/26 08:44:17;;;;;;;50.30;22.92;;;;;;;12.74;66.55;102810.63;5026733;28;20053;-71
2022/03/26 08:46:44;;;;;;;49.40;22.25;;;;;;;12.90;66.47;102814.19;5016336;28;20841;-74
2022/03/26 08:49:10;;;;;;;42.58;21.65;;;;;;;13.02;65.54;102802.97;5021117;28;20072;-73
2022/03/26 08:51:37;;;;;;;49.00;22.02;;;;;;;13.16;65.00;102810.81;5018774;28;20137;-73
2022/03/26 08:54:03;;;;;;;46.25;21.05;;;;;;;13.32;64.31;102814.31;5025517;28;20051;-72
2022/03/26 08:56:31;;;;;;;48.28;21.95;;;;;;;13.47;63.68;102819.81;5027350;28;20144;-74
2022/03/26 08:58:58;;;;;;;46.35;21.13;;;;;;;13.64;63.34;102819.38;5028678;28;20140;-74
2022/03/26 09:01:25;;;;;;;49.08;20.70;;;;;;;13.85;64.23;102824.53;5027418;28;20057;-70
2022/03/26 09:03:51;;;;;;;50.33;22.15;;;;;;;14.00;62.00;102820.84;5028744;28;20057;-73
2022/03/26 09:06:18;;;;;;;47.33;19.58;;;;;;;14.12;61.22;102824.25;5025288;28;20045;-73
2022/03/26 09:08:45;;;;;;;50.67;19.95;;;;;;;14.30;60.96;102827.34;5022703;28;20106;-74
2022/03/26 09:11:12;;;;;;;40.75;17.63;;;;;;;14.45;60.65;102821.66;5019011;28;20054;-74
2022/03/26 09:13:39;;;;;;;42.65;19.10;;;;;;;14.52;58.62;102816.19;5012847;28;20054;-76
2022/03/26 09:16:06;;;;;;;41.65;18.25;;;;;;;14.61;58.46;102830.66;5014900;28;20142;-73
2022/03/26 09:18:33;;;;;;;39.47;18.05;;;;;;;14.78;58.18;102827.34;5019875;28;20499;-77
2022/03/26 09:20:59;;;;;;;34.58;15.88;;;;;;;14.94;57.62;102836.38;5024676;28;20137;-76
2022/03/26 09:23:31;;;;;;;40.67;17.73;;;;;;;15.06;56.48;102830.53;5014243;28;20063;-75
2022/03/26 09:25:59;;;;;;;34.88;15.82;;;;;;;15.22;56.05;102836.75;5011277;28;20054;-77
2022/03/26 09:28:26;;;;;;;36.53;16.58;;;;;;;15.33;55.32;102834.88;5008231;28;20077;-75
2022/03/26 09:30:53;;;;;;;42.80;18.88;;;;;;;15.43;54.92;102837.03;5024538;28;20050;-75
2022/03/26 09:33:19;;;;;;;40.58;19.48;;;;;;;15.51;54.74;102840.72;5022430;28;20156;-74
2022/03/26 09:35:46;;;;;;;42.63;19.42;;;;;;;15.63;55.09;102837.69;5023231;28;21739;-74
2022/03/26 09:38:12;;;;;;;42.92;19.50;;;;;;;15.82;54.54;102845.09;5027174;28;20057;-74
2022/03/26 09:40:41;;;;;;;40.20;16.95;;;;;;;15.93;53.65;102844.00;5017220;28;20413;-74
2022/03/26 09:43:09;;;;;;;39.15;17.92;;;;;;;16.05;53.27;102832.56;5028775;28;20137;-76
2022/03/26 09:45:35;;;;;;;37.13;16.95;;;;;;;16.22;52.35;102828.31;5029378;28;20144;-73
2022/03/26 09:48:03;;;;;;;39.85;16.63;;;;;;;16.42;51.41;102829.69;5020500;28;20145;-74
2022/03/26 09:50:30;;;;;;;36.35;16.30;;;;;;;16.58;49.77;102828.28;5025370;28;20136;-74
2022/03/26 09:52:57;;;;;;;37.22;16.45;;;;;;;16.77;49.06;102821.63;5023655;28;20068;-76
2022/03/26 09:55:24;;;;;;;28.42;13.63;;;;;;;16.96;47.91;102818.53;5023422;28;20126;-74
2022/03/26 09:57:52;;;;;;;29.25;14.30;;;;;;;17.07;48.58;102822.19;5021147;28;20056;-75
2022/03/26 10:00:18;;;;;;;29.15;14.93;;;;;;;17.19;48.85;102824.66;5018907;28;20472;-77
2022/03/26 10:02:45;;;;;;;34.08;15.25;;;;;;;17.26;49.25;102819.91;5026898;28;20488;-74
2022/03/26 10:05:17;;;;;;;28.25;13.43;;;;;;;17.36;48.92;102812.75;5022576;28;20077;-79
2022/03/26 10:07:46;;;;;;;36.38;15.57;;;;;;;17.50;49.21;102810.03;5020440;28;20068;-74
2022/03/26 10:10:22;;;;;;;31.45;14.57;;;;;;;17.71;48.57;102804.50;5021894;28;20129;-73
2022/03/26 10:12:51;;;;;;;36.22;15.18;;;;;;;17.80;48.46;102805.75;5015564;28;20704;-69
2022/03/26 10:15:18;;;;;;;33.33;15.82;;;;;;;17.88;47.59;102812.13;5030534;28;20054;-73
2022/03/26 10:17:44;;;;;;;30.63;13.60;;;;;;;17.96;47.99;102803.34;5029739;28;20055;-74
2022/03/26 10:20:12;;;;;;;28.27;12.68;;;;;;;18.06;47.93;102813.00;5021901;28;20049;-74
2022/03/26 10:22:50;;;;;;;28.50;12.68;;;;;;;18.10;47.79;102810.16;5015574;28;20398;-77
2022/03/26 10:25:18;;;;;;;24.55;11.77;;;;;;;18.25;47.80;102804.19;5011088;28;20049;-73
2022/03/26 10:27:47;;;;;;;28.60;13.25;;;;;;;18.33;47.85;102804.97;5019680;28;20628;-72
2022/03/26 10:32:38;;;;;;;29.25;13.95;;;;;;;18.46;47.09;102797.81;5024158;28;20056;-73
2022/03/26 10:33:17;;;;;;;29.75;12.70;;;;;;;18.56;46.29;102797.00;5019207;28;20059;-72
2022/03/26 10:35:53;;;;;;;27.13;12.77;;;;;;;18.60;46.03;102793.00;5025364;28;20054;-74
2022/03/26 10:38:19;;;;;;;;;;;;;;;18.83;46.15;102792.53;5035430;28;20064;-70
2022/03/26 10:40:46;;;;;;;30.23;12.98;;;;;;;19.01;45.95;102790.47;5016815;28;19960;-70
2022/03/26 10:43:14;;;;;;;30.40;13.95;;;;;;;19.17;45.35;102788.03;5026924;28;20061;-71
2022/03/26 10:45:50;;;;;;;29.75;13.88;;;;;;;19.25;44.51;102792.41;5026260;28;20054;-71
2022/03/26 10:48:28;;;;;;;28.92;13.35;;;;;;;19.06;44.38;102779.63;5025216;28;20111;-72
2022/03/26 10:50:56;;;;;;;26.33;13.05;;;;;;;19.22;44.71;102785.59;5023335;28;20183;-70
2022/03/26 10:53:42;;;;;;;27.60;12.32;;;;;;;19.40;44.22;102780.72;5024692;28;20081;-70
2022/03/26 10:56:11;;;;;;;25.63;9.93;;;;;;;19.54;43.99;102772.22;5023538;28;20060;-69
2022/03/26 10:58:38;;;;;;;23.38;11.75;;;;;;;19.69;43.36;102772.94;5018351;28;20770;-70
2022/03/26 11:01:05;;;;;;;21.40;10.70;;;;;;;19.84;42.91;102778.06;5017857;28;20418;-71
2022/03/26 11:03:34;;;;;;;24.30;11.05;;;;;;;19.91;42.54;102768.81;5021696;28;20160;-72
2022/03/26 11:06:06;;;;;;;24.83;11.85;;;;;;;20.10;42.67;102768.22;5014880;28;20128;-71
2022/03/26 11:08:35;;;;;;;23.08;11.48;;;;;;;20.25;41.30;102762.13;5018662;28;20593;-74
2022/03/26 11:11:06;;;;;;;24.95;12.07;;;;;;;20.42;41.15;102771.63;5015187;28;20045;-74
2022/03/26 11:13:36;;;;;;;29.42;13.30;;;;;;;20.52;41.32;102759.47;5018259;28;20495;-74
2022/03/26 11:16:07;;;;;;;28.30;13.70;;;;;;;20.61;40.95;102764.59;5022611;28;20052;-72